Grand Mound, Washington
Current Conditions -  °F | °C
As of 5:15 AM on Monday 22 Dec 2014 (Local Time) from KCLS Reporting Station
Scattered Clouds Scattered Clouds  
Wind Chill: 42°   Ceiling: Unl
Heat Index: 46°   Visibility: 10mi
Dew Point: 46°   Wind: 8mph
Humidity: 100%   Direction: 170°S
Pressure: 30.25"   Gusts: NA
Location:  46.7386°N, 122.944°W
Report Text: KCLS 221315Z AUTO 17007KT 10SM FEW032 SCT039 08/08 A3025 RMK AO2
Loading
Personal Weather Stations






























Interactive Weather Map New forecast layout! Learn more

10-Day Weather Forecast

Advertisements
Track Severe Weather on mobile